Time,TemperatureF,DewpointF,PressureIn,WindDirection,WindDirectionDegrees,WindSpeedMPH,WindSpeedGustMPH,Humidity,HourlyPrecipIn,Conditions,Clouds,dailyrainin,SoftwareType,DateUTC
2013-06-25 00:16:00,67.2,65.0,29.93,SW,228,0.0,1.0,92,0.00,,,0.00,weatherlink.com 1.10,2013-06-25 04:16:00,
2013-06-25 00:31:00,67.0,65.0,29.94,SW,224,3.0,3.0,92,0.00,,,0.00,weatherlink.com 1.10,2013-06-25 04:31:00,
2013-06-25 00:46:00,67.3,65.0,29.93,WSW,248,2.0,3.0,92,0.00,,,0.00,weatherlink.com 1.10,2013-06-25 04:46:00,
2013-06-25 01:01:00,67.5,65.0,29.94,West,262,2.0,3.0,91,0.00,,,0.00,weatherlink.com 1.10,2013-06-25 05:01:00,
2013-06-25 01:16:00,68.8,66.0,29.93,WSW,246,4.0,7.0,89,0.00,,,0.00,weatherlink.com 1.10,2013-06-25 05:16:00,
2013-06-25 01:31:00,67.5,65.0,29.93,WSW,255,3.0,6.0,90,0.00,,,0.00,weatherlink.com 1.10,2013-06-25 05:31:00,
2013-06-25 01:46:00,67.4,65.0,29.93,West,277,2.0,7.0,92,0.00,,,0.00,weatherlink.com 1.10,2013-06-25 05:46:00,
2013-06-25 02:01:00,67.5,66.0,29.93,WNW,288,2.0,5.0,93,0.00,,,0.00,weatherlink.com 1.10,2013-06-25 06:01:00,
2013-06-25 02:16:00,67.8,66.0,29.93,WSW,257,0.0,5.0,93,0.00,,,0.00,weatherlink.com 1.10,2013-06-25 06:16:00,
2013-06-25 02:31:00,67.8,66.0,29.93,WSW,248,0.0,3.0,93,0.00,,,0.00,weatherlink.com 1.10,2013-06-25 06:31:00,
2013-06-25 02:46:00,67.7,66.0,29.93,WSW,255,2.0,5.0,93,0.00,,,0.00,weatherlink.com 1.10,2013-06-25 06:46:00,
2013-06-25 03:01:00,68.1,66.0,29.92,WSW,248,2.0,4.0,93,0.00,,,0.00,weatherlink.com 1.10,2013-06-25 07:01:00,
2013-06-25 03:16:00,68.5,66.0,29.92,SW,219,2.0,3.0,92,0.00,,,0.00,weatherlink.com 1.10,2013-06-25 07:16:00,
2013-06-25 03:31:00,68.5,66.0,29.91,WSW,257,1.0,3.0,92,0.00,,,0.00,weatherlink.com 1.10,2013-06-25 07:31:00,
2013-06-25 03:46:00,68.4,66.0,29.91,WSW,245,0.0,2.0,92,0.00,,,0.00,weatherlink.com 1.10,2013-06-25 07:46:00,
2013-06-25 04:01:00,67.3,65.0,29.90,SW,218,0.0,1.0,92,0.00,,,0.00,weatherlink.com 1.10,2013-06-25 08:01:00,
2013-06-25 04:16:00,67.1,65.0,29.91,SW,221,0.0,1.0,94,0.00,,,0.00,weatherlink.com 1.10,2013-06-25 08:16:00,
2013-06-25 04:31:00,66.9,65.0,29.91,SW,217,0.0,2.0,94,0.00,,,0.00,weatherlink.com 1.10,2013-06-25 08:31:00,
2013-06-25 04:46:00,66.1,64.0,29.91,SW,224,0.0,2.0,94,0.00,,,0.00,weatherlink.com 1.10,2013-06-25 08:46:00,
2013-06-25 05:01:00,65.8,64.0,29.91,SW,229,0.0,2.0,94,0.00,,,0.00,weatherlink.com 1.10,2013-06-25 09:01:00,
2013-06-25 05:16:00,66.5,65.0,29.91,WSW,243,1.0,3.0,95,0.00,,,0.00,weatherlink.com 1.10,2013-06-25 09:16:00,
2013-06-25 05:31:00,66.3,65.0,29.91,WSW,257,0.0,2.0,95,0.00,,,0.00,weatherlink.com 1.10,2013-06-25 09:31:00,
2013-06-25 05:46:00,66.6,65.0,29.91,SW,236,0.0,2.0,95,0.00,,,0.00,weatherlink.com 1.10,2013-06-25 09:46:00,
2013-06-25 06:01:00,67.2,66.0,29.91,WSW,243,1.0,3.0,96,0.00,,,0.00,weatherlink.com 1.10,2013-06-25 10:01:00,
2013-06-25 06:16:00,67.5,66.0,29.91,WSW,255,0.0,5.0,95,0.00,,,0.00,weatherlink.com 1.10,2013-06-25 10:16:00,
2013-06-25 06:31:00,67.7,66.0,29.92,WSW,250,0.0,4.0,95,0.00,,,0.00,weatherlink.com 1.10,2013-06-25 10:31:00,
2013-06-25 06:46:00,68.6,67.0,29.91,West,264,4.0,5.0,94,0.00,,,0.00,weatherlink.com 1.10,2013-06-25 10:46:00,
2013-06-25 07:01:00,68.7,67.0,29.91,South,178,1.0,2.0,94,0.00,,,0.00,weatherlink.com 1.10,2013-06-25 11:01:00,
2013-06-25 07:16:00,68.7,67.0,29.91,SW,231,0.0,1.0,93,0.00,,,0.00,weatherlink.com 1.10,2013-06-25 11:16:00,
2013-06-25 07:31:00,69.7,67.0,29.91,WSW,240,0.0,4.0,92,0.00,,,0.00,weatherlink.com 1.10,2013-06-25 11:31:00,
2013-06-25 08:01:00,73.2,68.0,29.91,SSW,211,0.0,2.0,84,0.00,,,0.00,weatherlink.com 1.10,2013-06-25 12:01:00,
2013-06-25 08:16:00,75.9,70.0,29.90,SSW,205,0.0,1.0,82,0.00,,,0.00,weatherlink.com 1.10,2013-06-25 12:16:00,
2013-06-25 08:31:00,75.8,69.0,29.91,SW,215,0.0,3.0,79,0.00,,,0.00,weatherlink.com 1.10,2013-06-25 12:31:00,
2013-06-25 08:46:00,74.2,68.0,29.91,SE,146,2.0,3.0,81,0.00,,,0.00,weatherlink.com 1.10,2013-06-25 12:46:00,
2013-06-25 09:01:00,72.9,68.0,29.91,SSE,150,2.0,4.0,84,0.00,,,0.00,weatherlink.com 1.10,2013-06-25 13:01:00,
2013-06-25 09:16:00,72.2,67.0,29.90,SSW,203,1.0,4.0,84,0.00,,,0.00,weatherlink.com 1.10,2013-06-25 13:16:00,
2013-06-25 09:31:00,73.0,68.0,29.90,SSW,195,1.0,4.0,83,0.00,,,0.00,weatherlink.com 1.10,2013-06-25 13:31:00,
2013-06-25 09:46:00,74.4,68.0,29.90,SSW,210,2.0,4.0,81,0.00,,,0.00,weatherlink.com 1.10,2013-06-25 13:46:00,
2013-06-25 10:16:00,76.3,69.0,29.90,SSW,200,1.0,2.0,79,0.00,,,0.00,weatherlink.com 1.10,2013-06-25 14:16:00,
2013-06-25 10:31:00,77.9,70.0,29.91,SSW,198,0.0,2.0,76,0.00,,,0.00,weatherlink.com 1.10,2013-06-25 14:31:00,
2013-06-25 10:47:00,79.0,70.0,29.91,WSW,255,3.0,8.0,74,0.00,,,0.00,weatherlink.com 1.10,2013-06-25 14:47:00,
2013-06-25 11:02:00,80.5,71.0,29.90,SSW,210,1.0,8.0,72,0.00,,,0.00,weatherlink.com 1.10,2013-06-25 15:02:00,
2013-06-25 11:17:00,81.5,71.0,29.90,SE,134,2.0,4.0,71,0.00,,,0.00,weatherlink.com 1.10,2013-06-25 15:17:00,
2013-06-25 11:32:00,80.5,70.0,29.90,SSW,210,1.0,8.0,71,0.00,,,0.00,weatherlink.com 1.10,2013-06-25 15:32:00,
2013-06-25 11:47:00,81.6,71.0,29.89,SW,214,3.0,3.0,69,0.00,,,0.00,weatherlink.com 1.10,2013-06-25 15:47:00,
2013-06-25 12:02:00,82.2,71.0,29.89,West,262,4.0,8.0,69,0.00,,,0.00,weatherlink.com 1.10,2013-06-25 16:02:00,
2013-06-25 12:17:00,82.1,71.0,29.89,SSE,161,2.0,10.0,69,0.00,,,0.00,weatherlink.com 1.10,2013-06-25 16:17:00,
2013-06-25 12:32:00,82.1,71.0,29.89,SSW,207,1.0,4.0,68,0.00,,,0.00,weatherlink.com 1.10,2013-06-25 16:32:00,
2013-06-25 12:47:00,82.9,71.0,29.88,West,269,2.0,8.0,67,0.00,,,0.00,weatherlink.com 1.10,2013-06-25 16:47:00,
2013-06-25 13:02:00,82.3,70.0,29.88,SW,218,2.0,7.0,67,0.00,,,0.00,weatherlink.com 1.10,2013-06-25 17:02:00,
2013-06-25 13:17:00,82.1,71.0,29.88,SSW,212,1.0,3.0,69,0.00,,,0.00,weatherlink.com 1.10,2013-06-25 17:17:00,
2013-06-25 13:32:00,84.3,72.0,29.87,WSW,246,5.0,7.0,67,0.00,,,0.00,weatherlink.com 1.10,2013-06-25 17:32:00,
2013-06-25 13:47:00,82.8,72.0,29.86,SSW,197,2.0,7.0,69,0.00,,,0.00,weatherlink.com 1.10,2013-06-25 17:47:00,
2013-06-25 14:02:00,83.7,71.0,29.85,South,188,0.0,5.0,66,0.00,,,0.00,weatherlink.com 1.10,2013-06-25 18:02:00,
2013-06-25 14:17:00,79.0,68.0,29.85,SSW,200,3.0,4.0,70,0.00,,,0.00,weatherlink.com 1.10,2013-06-25 18:17:00,
2013-06-25 14:32:00,77.6,69.0,29.84,SSE,149,1.0,4.0,75,0.00,,,0.00,weatherlink.com 1.10,2013-06-25 18:32:00,
2013-06-25 14:47:00,78.6,70.0,29.84,SSW,211,1.0,5.0,76,0.00,,,0.00,weatherlink.com 1.10,2013-06-25 18:47:00,
2013-06-25 15:02:00,80.1,72.0,29.83,South,172,2.0,4.0,75,0.00,,,0.00,weatherlink.com 1.10,2013-06-25 19:02:00,
2013-06-25 15:17:00,79.3,71.0,29.83,SSW,211,0.0,3.0,76,0.00,,,0.00,weatherlink.com 1.10,2013-06-25 19:17:00,
2013-06-25 15:35:00,78.0,70.0,29.82,SW,217,2.0,3.0,77,0.00,,,0.00,weatherlink.com 1.10,2013-06-25 19:35:00,
2013-06-25 15:47:00,78.2,70.0,29.82,SW,218,1.0,3.0,76,0.00,,,0.00,weatherlink.com 1.10,2013-06-25 19:47:00,
2013-06-25 16:02:00,78.5,70.0,29.81,SSW,207,0.0,2.0,76,0.00,,,0.00,weatherlink.com 1.10,2013-06-25 20:02:00,
2013-06-25 16:17:00,76.3,69.0,29.80,ESE,116,1.0,2.0,77,0.00,,,0.00,weatherlink.com 1.10,2013-06-25 20:17:00,
2013-06-25 16:33:00,76.1,70.0,29.79,South,188,2.0,3.0,82,0.00,,,0.00,weatherlink.com 1.10,2013-06-25 20:33:00,
2013-06-25 16:47:00,76.1,70.0,29.79,South,181,4.0,4.0,80,0.00,,,0.00,weatherlink.com 1.10,2013-06-25 20:47:00,
2013-06-25 17:02:00,74.5,68.0,29.79,SSW,210,4.0,6.0,81,0.00,,,0.00,weatherlink.com 1.10,2013-06-25 21:02:00,
2013-06-25 17:17:00,73.7,68.0,29.78,SW,232,3.0,5.0,83,0.00,,,0.00,weatherlink.com 1.10,2013-06-25 21:17:00,
2013-06-25 17:34:00,73.6,69.0,29.78,South,187,1.0,5.0,84,0.00,,,0.00,weatherlink.com 1.10,2013-06-25 21:34:00,
2013-06-25 17:47:00,73.7,68.0,29.77,South,181,2.0,5.0,83,0.00,,,0.00,weatherlink.com 1.10,2013-06-25 21:47:00,
2013-06-25 18:02:00,73.3,69.0,29.77,South,183,2.0,5.0,85,0.00,,,0.00,weatherlink.com 1.10,2013-06-25 22:02:00,
2013-06-25 18:17:00,72.6,68.0,29.77,SW,215,4.0,5.0,86,0.00,,,0.00,weatherlink.com 1.10,2013-06-25 22:17:00,
2013-06-25 18:32:00,71.3,67.0,29.77,South,184,1.0,6.0,87,0.00,,,0.00,weatherlink.com 1.10,2013-06-25 22:32:00,
2013-06-25 18:47:00,70.1,67.0,29.76,SW,229,1.0,3.0,89,0.00,,,0.00,weatherlink.com 1.10,2013-06-25 22:47:00,
2013-06-25 19:03:00,69.3,67.0,29.75,South,172,1.0,4.0,91,0.00,,,0.00,weatherlink.com 1.10,2013-06-25 23:03:00,
2013-06-25 19:18:00,69.0,67.0,29.75,South,189,2.0,4.0,92,0.00,,,0.00,weatherlink.com 1.10,2013-06-25 23:18:00,
2013-06-25 19:33:00,69.0,67.0,29.75,SW,217,2.0,4.0,93,0.00,,,0.00,weatherlink.com 1.10,2013-06-25 23:33:00,
2013-06-25 19:48:00,68.9,67.0,29.74,WSW,240,3.0,5.0,93,0.00,,,0.00,weatherlink.com 1.10,2013-06-25 23:48:00,
2013-06-25 20:03:00,69.4,67.0,29.74,West,263,3.0,6.0,93,0.00,,,0.00,weatherlink.com 1.10,2013-06-26 00:03:00,
2013-06-25 20:18:00,69.5,67.0,29.74,SSW,205,2.0,5.0,92,0.00,,,0.00,weatherlink.com 1.10,2013-06-26 00:18:00,
2013-06-25 20:36:00,69.0,67.0,29.74,South,174,1.0,4.0,92,0.00,,,0.00,weatherlink.com 1.10,2013-06-26 00:36:00,
2013-06-25 20:48:00,69.0,67.0,29.75,SW,232,3.0,5.0,92,0.00,,,0.00,weatherlink.com 1.10,2013-06-26 00:48:00,
2013-06-25 21:03:00,69.3,67.0,29.75,SSW,212,1.0,5.0,92,0.00,,,0.00,weatherlink.com 1.10,2013-06-26 01:03:00,
2013-06-25 21:18:00,69.7,67.0,29.75,SW,228,2.0,4.0,92,0.00,,,0.00,weatherlink.com 1.10,2013-06-26 01:18:00,
2013-06-25 21:33:00,70.0,68.0,29.75,SSW,193,1.0,4.0,92,0.00,,,0.00,weatherlink.com 1.10,2013-06-26 01:33:00,
2013-06-25 21:48:00,69.5,67.0,29.75,SSW,200,1.0,3.0,91,0.00,,,0.00,weatherlink.com 1.10,2013-06-26 01:48:00,
2013-06-25 22:03:00,69.7,67.0,29.75,SSW,195,1.0,3.0,92,0.00,,,0.00,weatherlink.com 1.10,2013-06-26 02:03:00,
2013-06-25 22:18:00,69.3,67.0,29.75,SW,225,4.0,4.0,92,0.00,,,0.00,weatherlink.com 1.10,2013-06-26 02:18:00,
2013-06-25 22:33:00,69.2,67.0,29.76,SW,214,1.0,4.0,93,0.00,,,0.00,weatherlink.com 1.10,2013-06-26 02:33:00,
2013-06-25 22:48:00,69.7,68.0,29.76,SW,231,1.0,4.0,93,0.00,,,0.00,weatherlink.com 1.10,2013-06-26 02:48:00,
2013-06-25 23:03:00,69.9,68.0,29.76,SW,231,1.0,3.0,93,0.00,,,0.00,weatherlink.com 1.10,2013-06-26 03:03:00,
2013-06-25 23:18:00,70.3,68.0,29.77,WSW,255,0.0,2.0,93,0.00,,,0.00,weatherlink.com 1.10,2013-06-26 03:18:00,
2013-06-25 23:33:00,69.3,67.0,29.77,WNW,294,0.0,2.0,92,0.00,,,0.00,weatherlink.com 1.10,2013-06-26 03:33:00,
2013-06-25 23:48:00,68.7,67.0,29.77,SW,229,1.0,3.0,93,0.00,,,0.00,weatherlink.com 1.10,2013-06-26 03:48:00,